Hauptseite
METAR-TAF:

METAR-TAF

Flughäfen :

Flughafen Dundee

Dundee, Schottland

Breite: 56-27N, Länge: 003-01W, Höhe: 4 m

Beobachtung

Neuester Wetterbericht von vor 5 Stunden und 5 Minuten, um 19:20 UTC
Wind 3 kt aus unterschiedlichen Richtungen
Temperatur 12°C
Luftfeuchtigkeit 76%
Luftdruck 1001 hPa
Sichtweite 10 km oder mehr
Aufgelockert bewölkt in der Höhe von 2900 ft

METAR: EGPN 231920Z VRB03KT 9999 SCT029 12/08 Q1001

Zeit: 01:25 (00:25 UTC)

Prognose

Neuester Wetterbericht von vor 7 Stunden und 24 Minuten, um 17:01 UTC
Gültige Prognose vom 23 um 18 UTC bis 23 um 20 UTC
Wind 9 kt aus Südwest
Sichtweite 10 km oder mehr
Leicht bewölkt in der Höhe von 1400 ft
Aufgelockert bewölkt in der Höhe von 3000 ft
Wahrscheinlichkeit 30% :
Zeitweise
vom 23 um 18 UTC bis 23 um 20 UTC
Wind 15 kt aus Südwest, Böen bis zu 25 kt

TAF: EGPN 231701Z 2318/2320 22009KT 9999 FEW014 SCT030 PROB30 TEMPO 2318/2320 23015G25KT

Wetterbeobachtungen und Prognosen von mehr als 4000 Flughäfen (METAR und TAF Bericht).

Die verfügbaren Stationen werden durch gelbe und rote Markierungen auf der Karte dargestellt.

Führen Sie die Maus auf sie, um den Namen der Station zu sehen.

Darauf klicken, um die Beobachtung von Wetterbeobachtungen und Prognosen zu sehen.

Um die Karte zu ändern : klicken Sie auf den grünen Tasten mit einem schwarzen Kreuz Zum Vergrößern, auf den grünen Button mit einem Gedankenstrich zu verkleinern, oder auf die grünen Pfeile für benachbarte Karten.


METAR-TAF: